Time;durP1;ratioP1;P1;durP2;ratioP2;P2;SDS_P1;SDS_P2;PMS_P1;PMS_P2;Temp;Humidity;BMP_temperature;BMP_pressure;BME280_temperature;BME280_humidity;BME280_pressure;Samples;Min_cycle;Max_cycle;Signal;HPM_P1;HPM_P2
2024/03/02 00:00:09;;;;;;;15.60;8.73;;;3.60;99.90;;;;;;5081630;28;20028;-90
2024/03/02 00:02:46;;;;;;;15.75;9.00;;;3.60;99.90;;;;;;5064413;28;20036;-92
2024/03/02 00:05:14;;;;;;;14.85;9.57;;;3.70;99.90;;;;;;5064424;28;20058;-92
2024/03/02 00:07:44;;;;;;;18.55;10.20;;;3.70;99.90;;;;;;5081551;28;20031;-92
2024/03/02 00:10:12;;;;;;;13.07;8.90;;;3.70;99.90;;;;;;5064239;28;20046;-91
2024/03/02 00:12:39;;;;;;;13.00;8.50;;;3.70;99.90;;;;;;5081547;28;20027;-92
2024/03/02 00:15:28;;;;;;;18.15;13.52;;;3.60;99.90;;;;;;5077753;28;20195;-92
2024/03/02 00:17:54;;;;;;;16.77;9.70;;;3.60;99.90;;;;;;5031418;28;20033;-91
2024/03/02 00:20:22;;;;;;;15.88;9.38;;;3.60;99.90;;;;;;5064559;28;20028;-93
2024/03/02 00:22:50;;;;;;;15.93;10.13;;;3.60;99.90;;;;;;5062957;28;20031;-92
2024/03/02 00:25:16;;;;;;;14.45;9.23;;;3.50;99.90;;;;;;5081953;28;20094;-92
2024/03/02 00:27:47;;;;;;;15.43;8.75;;;3.40;99.90;;;;;;5063939;28;20025;-91
2024/03/02 00:30:52;;;;;;;18.13;10.13;;;3.40;99.90;;;;;;5082167;28;20020;-92
2024/03/02 00:33:21;;;;;;;14.70;8.25;;;3.40;99.90;;;;;;4996743;28;20031;-93
2024/03/02 00:35:47;;;;;;;22.08;9.90;;;3.40;99.90;;;;;;5081687;28;20041;-93
2024/03/02 00:38:15;;;;;;;17.98;8.93;;;3.30;99.90;;;;;;5079068;28;20012;-92
2024/03/02 00:40:44;;;;;;;16.08;8.95;;;3.40;99.90;;;;;;5097305;28;20028;-94
2024/03/02 00:43:43;;;;;;;14.85;9.27;;;3.30;99.90;;;;;;5079972;28;20008;-93
2024/03/02 00:46:16;;;;;;;13.32;8.38;;;3.20;99.90;;;;;;5097148;28;20068;-92
2024/03/02 00:48:51;;;;;;;11.73;8.27;;;3.20;99.90;;;;;;5079599;28;20023;-94
2024/03/02 00:51:17;;;;;;;14.70;9.27;;;3.10;99.90;;;;;;5088454;28;20047;-92
2024/03/02 00:53:43;;;;;;;18.38;9.57;;;3.00;99.90;;;;;;5069212;28;20025;-92
2024/03/02 00:56:11;;;;;;;18.95;10.23;;;2.90;99.90;;;;;;5067620;28;20024;-93
2024/03/02 00:58:38;;;;;;;15.20;9.23;;;2.80;99.90;;;;;;5083792;28;20036;-94
2024/03/02 01:01:04;;;;;;;13.23;9.38;;;2.70;99.90;;;;;;5064628;28;20119;-92
2024/03/02 01:03:32;;;;;;;17.58;8.50;;;2.80;99.90;;;;;;5082628;28;20025;-92
2024/03/02 01:05:58;;;;;;;15.43;11.50;;;2.80;99.90;;;;;;5065338;28;20402;-92
2024/03/02 01:08:25;;;;;;;14.25;9.05;;;2.90;99.90;;;;;;5063958;28;20041;-92
2024/03/02 01:10:51;;;;;;;19.63;12.23;;;2.90;99.90;;;;;;5081326;28;20023;-92
2024/03/02 01:13:16;;;;;;;20.58;11.50;;;2.90;99.90;;;;;;5062871;28;20020;-91
2024/03/02 01:15:42;;;;;;;19.23;13.55;;;3.00;99.90;;;;;;5063500;28;20417;-93
2024/03/02 01:18:08;;;;;;;20.50;12.23;;;3.00;99.90;;;;;;5063201;28;20024;-92
2024/03/02 01:20:34;;;;;;;22.10;13.45;;;3.10;99.90;;;;;;5081943;28;20082;-92
2024/03/02 01:23:00;;;;;;;19.05;13.48;;;3.10;99.90;;;;;;5055764;28;20128;-93
2024/03/02 01:25:25;;;;;;;22.58;12.98;;;3.10;99.90;;;;;;5056355;28;20024;-92
2024/03/02 01:27:51;;;;;;;18.92;11.90;;;3.10;99.90;;;;;;5063314;28;20093;-92
2024/03/02 01:30:20;;;;;;;19.45;12.23;;;3.00;99.90;;;;;;5063100;28;20021;-93
2024/03/02 01:32:46;;;;;;;22.70;13.18;;;3.10;99.90;;;;;;5063165;28;20025;-92
2024/03/02 01:35:12;;;;;;;19.17;12.20;;;3.10;99.90;;;;;;5080999;28;20029;-91
2024/03/02 01:37:38;;;;;;;19.35;11.85;;;3.10;99.90;;;;;;5080569;28;20495;-93
2024/03/02 01:40:08;;;;;;;17.30;11.45;;;3.00;99.90;;;;;;5080969;28;20502;-91
2024/03/02 01:42:36;;;;;;;22.80;12.45;;;3.00;99.90;;;;;;5063569;28;20024;-92
2024/03/02 01:45:03;;;;;;;22.95;14.07;;;2.90;99.90;;;;;;5080454;28;20028;-93
2024/03/02 01:47:29;;;;;;;23.88;13.18;;;2.90;99.90;;;;;;5063062;28;20025;-92
2024/03/02 01:49:55;;;;;;;21.48;13.65;;;2.90;99.90;;;;;;5080462;28;20027;-91
2024/03/02 01:52:21;;;;;;;19.75;13.23;;;3.00;99.90;;;;;;5073964;28;20025;-93
2024/03/02 01:54:46;;;;;;;23.90;13.25;;;3.00;99.90;;;;;;5063699;28;20025;-92
2024/03/02 01:57:12;;;;;;;18.60;11.68;;;3.00;99.90;;;;;;5080546;28;20522;-91
2024/03/02 01:59:38;;;;;;;21.48;12.60;;;3.00;99.90;;;;;;5062805;28;20116;-92
2024/03/02 02:02:04;;;;;;;22.33;13.77;;;3.00;99.90;;;;;;5080286;28;20078;-92
2024/03/02 02:04:30;;;;;;;20.92;12.27;;;3.00;99.90;;;;;;5062944;28;20025;-92
2024/03/02 02:06:57;;;;;;;17.63;10.93;;;2.90;99.90;;;;;;5080697;28;20089;-91
2024/03/02 02:09:22;;;;;;;19.70;12.20;;;3.00;99.90;;;;;;5080260;28;20052;-92
2024/03/02 02:11:50;;;;;;;19.35;11.80;;;2.90;99.90;;;;;;5062415;28;20021;-93
2024/03/02 02:14:15;;;;;;;18.90;10.90;;;2.90;99.90;;;;;;5062393;28;20028;-91
2024/03/02 02:16:42;;;;;;;17.40;11.25;;;3.00;99.90;;;;;;5079913;28;20497;-92
2024/03/02 02:19:08;;;;;;;17.13;10.95;;;2.80;99.90;;;;;;5061897;28;20039;-93
2024/03/02 02:21:33;;;;;;;16.40;10.63;;;2.80;99.90;;;;;;5082647;28;20034;-92
2024/03/02 02:24:01;;;;;;;14.30;9.10;;;2.70;99.90;;;;;;5065367;28;20044;-91
2024/03/02 02:26:26;;;;;;;14.93;9.90;;;2.70;99.90;;;;;;5065879;28;20064;-92
2024/03/02 02:28:52;;;;;;;16.40;10.10;;;2.80;99.90;;;;;;5066085;28;20025;-92
2024/03/02 02:31:18;;;;;;;14.85;10.00;;;2.80;99.90;;;;;;5065250;28;20017;-93
2024/03/02 02:33:44;;;;;;;16.33;10.38;;;2.70;99.90;;;;;;5085227;28;20155;-91
2024/03/02 02:36:12;;;;;;;16.25;10.52;;;2.70;99.90;;;;;;5066178;28;20399;-92
2024/03/02 02:38:42;;;;;;;20.60;10.98;;;2.50;99.90;;;;;;5083779;28;20021;-90
2024/03/02 02:41:08;;;;;;;14.07;9.20;;;2.50;99.90;;;;;;5083080;28;20051;-91
2024/03/02 02:43:34;;;;;;;15.98;10.48;;;2.50;99.90;;;;;;5083674;28;20024;-93
2024/03/02 02:46:00;;;;;;;15.70;10.38;;;2.40;99.90;;;;;;5066297;28;20027;-91
2024/03/02 02:48:26;;;;;;;17.80;10.52;;;2.50;99.90;;;;;;5065802;28;20499;-92
2024/03/02 02:50:54;;;;;;;17.35;10.05;;;2.50;99.90;;;;;;5083418;28;20021;-92
2024/03/02 02:53:20;;;;;;;16.42;9.57;;;2.40;99.90;;;;;;5065596;28;20012;-92
2024/03/02 02:55:46;;;;;;;18.67;10.20;;;2.40;99.90;;;;;;5065253;28;20698;-92
2024/03/02 02:58:12;;;;;;;15.45;9.55;;;2.30;99.90;;;;;;5083283;28;20052;-92
2024/03/02 03:00:40;;;;;;;17.38;9.82;;;2.30;99.90;;;;;;5083822;28;20021;-93
2024/03/02 03:03:06;;;;;;;15.02;10.32;;;2.30;99.90;;;;;;5082439;28;20021;-93
2024/03/02 03:05:32;;;;;;;18.23;10.55;;;2.30;99.90;;;;;;5083284;28;20084;-92
2024/03/02 03:07:57;;;;;;;18.73;10.93;;;2.30;99.90;;;;;;5082151;28;20040;-92
2024/03/02 03:10:25;;;;;;;15.20;8.55;;;2.30;99.90;;;;;;5084389;28;20115;-92
2024/03/02 03:12:51;;;;;;;15.32;9.80;;;2.20;99.90;;;;;;5065133;28;20028;-91
2024/03/02 03:15:17;;;;;;;16.27;9.32;;;2.20;99.90;;;;;;5065135;28;20546;-93
2024/03/02 03:17:43;;;;;;;14.05;8.27;;;2.20;99.90;;;;;;5064930;28;20025;-92
2024/03/02 03:20:09;;;;;;;13.50;8.30;;;2.20;99.90;;;;;;5065906;28;20040;-92
2024/03/02 03:22:36;;;;;;;15.30;8.05;;;2.20;99.90;;;;;;5062728;28;20043;-92
2024/03/02 03:25:03;;;;;;;13.60;8.32;;;2.10;99.90;;;;;;5063938;28;20024;-91
2024/03/02 03:27:29;;;;;;;13.07;8.00;;;2.00;99.90;;;;;;5065096;28;20063;-92
2024/03/02 03:29:55;;;;;;;12.07;8.95;;;2.10;99.90;;;;;;5065297;28;20050;-92
2024/03/02 03:32:21;;;;;;;14.10;8.90;;;2.10;99.90;;;;;;5064786;28;20031;-92
2024/03/02 03:34:48;;;;;;;13.82;8.30;;;2.10;99.90;;;;;;5064973;28;20036;-92
2024/03/02 03:37:14;;;;;;;16.60;9.60;;;2.10;99.90;;;;;;5082575;28;20025;-92
2024/03/02 03:39:40;;;;;;;15.40;8.75;;;2.10;99.90;;;;;;5082492;28;20043;-91
2024/03/02 03:42:06;;;;;;;15.45;9.50;;;1.90;99.90;;;;;;5065408;28;20495;-91
2024/03/02 03:44:32;;;;;;;13.73;8.13;;;1.90;99.90;;;;;;5082338;28;20031;-91
2024/03/02 03:46:58;;;;;;;14.15;8.23;;;1.80;99.90;;;;;;5083441;28;20032;-93
2024/03/02 03:49:24;;;;;;;13.65;8.48;;;1.80;99.90;;;;;;5064582;28;20065;-92
2024/03/02 03:51:51;;;;;;;12.18;8.02;;;1.80;99.90;;;;;;5075633;28;20127;-92
2024/03/02 03:54:17;;;;;;;13.57;7.90;;;1.80;99.90;;;;;;5063840;28;20050;-91
2024/03/02 03:56:43;;;;;;;14.32;8.50;;;1.80;99.90;;;;;;5082465;28;20609;-91
2024/03/02 03:59:09;;;;;;;14.32;8.48;;;1.80;99.90;;;;;;5063661;28;20025;-91
2024/03/02 04:01:34;;;;;;;16.73;12.13;;;1.90;99.90;;;;;;5081870;28;20431;-91
2024/03/02 04:04:03;;;;;;;14.38;9.70;;;1.80;99.90;;;;;;5063825;28;20456;-91
2024/03/02 04:06:29;;;;;;;12.93;8.48;;;1.70;99.90;;;;;;5081403;28;20104;-92
2024/03/02 04:08:55;;;;;;;14.93;9.20;;;1.60;99.90;;;;;;5063227;28;20052;-92
2024/03/02 04:11:21;;;;;;;9.75;7.72;;;1.60;99.90;;;;;;5080804;28;20027;-92
2024/03/02 04:13:46;;;;;;;14.48;8.95;;;1.60;99.90;;;;;;5063237;28;20024;-92
2024/03/02 04:16:12;;;;;;;14.50;8.23;;;1.60;99.90;;;;;;5062441;28;20036;-93
2024/03/02 04:18:39;;;;;;;13.38;8.15;;;1.50;99.90;;;;;;5080165;28;20029;-92
2024/03/02 04:21:05;;;;;;;14.07;8.32;;;1.50;99.90;;;;;;5047054;28;20036;-92
2024/03/02 04:23:31;;;;;;;14.07;7.25;;;1.40;99.90;;;;;;5062833;28;20035;-92
2024/03/02 04:25:57;;;;;;;13.13;8.60;;;1.30;99.90;;;;;;5080697;28;20035;-92
2024/03/02 04:28:22;;;;;;;12.15;8.20;;;1.30;99.90;;;;;;5061993;28;20028;-92
2024/03/02 04:30:48;;;;;;;15.50;8.25;;;1.30;99.90;;;;;;5061714;28;20091;-91
2024/03/02 04:33:14;;;;;;;12.05;7.47;;;1.40;99.90;;;;;;5079500;28;20020;-92
2024/03/02 04:35:40;;;;;;;11.75;8.50;;;1.30;99.90;;;;;;5062148;28;20029;-93
2024/03/02 04:38:06;;;;;;;15.43;8.00;;;1.30;99.90;;;;;;5080205;28;20399;-90
2024/03/02 04:40:32;;;;;;;13.52;7.15;;;1.30;99.90;;;;;;5061908;28;20036;-93
2024/03/02 04:42:59;;;;;;;14.18;7.15;;;1.30;99.90;;;;;;5080335;28;20029;-92
2024/03/02 04:45:24;;;;;;;11.07;7.95;;;1.30;99.90;;;;;;5078483;28;20082;-92
2024/03/02 04:47:50;;;;;;;13.75;11.25;;;1.30;99.90;;;;;;5079491;28;20403;-92
2024/03/02 04:50:16;;;;;;;13.23;7.63;;;1.30;99.90;;;;;;5079103;28;20543;-92
2024/03/02 04:52:42;;;;;;;11.75;7.18;;;1.30;99.90;;;;;;5061600;28;20541;-93
2024/03/02 04:57:46;;;;;;;;;;;1.40;99.90;;;;;;5080523;28;20114;-92
2024/03/02 05:00:12;;;;;;;10.52;7.25;;;1.30;99.90;;;;;;5061384;28;19904;-92
2024/03/02 05:02:38;;;;;;;15.35;7.75;;;1.30;99.90;;;;;;5080426;28;20078;-92
2024/03/02 05:05:04;;;;;;;11.20;7.35;;;1.30;99.90;;;;;;5080745;28;20024;-92
2024/03/02 05:07:30;;;;;;;11.68;7.65;;;1.30;99.90;;;;;;5061879;28;20044;-91
2024/03/02 05:09:55;;;;;;;13.00;8.75;;;1.40;99.90;;;;;;5079296;28;20024;-91
2024/03/02 05:15:07;;;;;;;15.40;8.88;;;1.40;99.90;;;;;;5078924;28;20039;-92
2024/03/02 05:17:33;;;;;;;13.85;8.90;;;1.50;99.90;;;;;;5079679;28;20024;-92
2024/03/02 05:19:59;;;;;;;14.25;9.90;;;1.50;99.90;;;;;;5080534;28;20066;-91
2024/03/02 05:22:25;;;;;;;19.75;11.32;;;1.50;99.90;;;;;;5061720;28;20447;-92
2024/03/02 05:24:50;;;;;;;13.18;9.77;;;1.50;99.90;;;;;;5079778;28;20465;-93
2024/03/02 05:27:16;;;;;;;11.52;7.82;;;1.60;99.90;;;;;;5062674;28;20032;-92
2024/03/02 05:29:42;;;;;;;11.40;6.15;;;1.50;99.90;;;;;;5062499;28;20029;-93
2024/03/02 05:32:08;;;;;;;10.82;6.57;;;1.50;99.90;;;;;;5063489;28;20021;-91
2024/03/02 05:34:35;;;;;;;9.10;5.85;;;1.50;99.90;;;;;;5081049;28;20052;-91
2024/03/02 05:37:01;;;;;;;10.55;7.88;;;1.50;99.90;;;;;;5062432;28;20375;-92
2024/03/02 05:39:27;;;;;;;12.90;7.95;;;1.40;99.90;;;;;;5063323;28;20486;-92
2024/03/02 05:41:53;;;;;;;13.75;6.90;;;1.40;99.90;;;;;;5079117;28;20025;-92
2024/03/02 05:44:19;;;;;;;12.55;8.18;;;1.20;99.90;;;;;;5055396;28;20447;-91
2024/03/02 05:46:45;;;;;;;9.77;6.43;;;1.20;99.90;;;;;;5063192;28;20020;-92
2024/03/02 05:49:12;;;;;;;11.18;7.30;;;1.20;99.90;;;;;;5079057;28;20036;-92
2024/03/02 05:51:38;;;;;;;28.15;23.40;;;1.10;99.90;;;;;;5062451;28;20025;-91
2024/03/02 05:54:04;;;;;;;18.70;11.95;;;1.20;99.90;;;;;;5079963;28;20024;-92
2024/03/02 05:56:29;;;;;;;16.42;11.77;;;1.20;99.90;;;;;;5064652;28;20021;-92
2024/03/02 05:59:15;;;;;;;17.35;11.20;;;1.20;99.90;;;;;;5055474;28;20572;-90
2024/03/02 06:01:42;;;;;;;12.90;9.52;;;1.20;99.90;;;;;;5060418;28;20047;-91
2024/03/02 06:04:12;;;;;;;12.93;8.52;;;1.10;99.90;;;;;;5082782;28;20028;-91
2024/03/02 06:06:38;;;;;;;13.32;8.25;;;1.10;99.90;;;;;;5083318;28;20540;-93
2024/03/02 06:09:07;;;;;;;13.95;7.60;;;1.20;99.90;;;;;;5064926;28;20032;-92
2024/03/02 06:11:37;;;;;;;9.88;6.43;;;1.10;99.90;;;;;;5083428;28;20028;-92
2024/03/02 06:14:04;;;;;;;10.77;7.45;;;1.10;99.90;;;;;;5083129;28;20074;-91
2024/03/02 06:16:30;;;;;;;15.63;6.63;;;1.10;99.90;;;;;;5064829;28;20082;-91
2024/03/02 06:18:57;;;;;;;13.32;8.15;;;1.10;99.90;;;;;;5064865;28;20032;-92
2024/03/02 06:21:24;;;;;;;15.05;8.77;;;1.10;99.90;;;;;;5064514;28;20066;-92
2024/03/02 06:23:50;;;;;;;12.18;8.52;;;1.00;99.90;;;;;;5064228;28;20040;-91
2024/03/02 06:26:16;;;;;;;13.90;9.25;;;1.00;99.90;;;;;;5065597;28;20035;-92
2024/03/02 06:28:42;;;;;;;17.83;11.40;;;1.10;99.90;;;;;;5065670;28;20032;-91
2024/03/02 06:31:08;;;;;;;21.25;12.48;;;1.10;99.90;;;;;;5064105;28;20032;-92
2024/03/02 06:33:34;;;;;;;19.25;10.35;;;1.10;99.90;;;;;;5065681;28;20027;-92
2024/03/02 06:36:01;;;;;;;16.33;10.20;;;1.20;99.90;;;;;;5082822;28;20505;-91
2024/03/02 06:38:28;;;;;;;13.05;9.38;;;1.20;99.90;;;;;;5083148;28;20024;-92
2024/03/02 06:40:55;;;;;;;15.50;9.40;;;1.20;99.90;;;;;;5065346;28;20059;-92
2024/03/02 06:43:24;;;;;;;17.05;8.65;;;1.20;99.90;;;;;;5065224;28;20533;-91
2024/03/02 06:45:53;;;;;;;15.13;8.65;;;1.20;99.90;;;;;;5065799;28;20024;-91
2024/03/02 06:48:20;;;;;;;18.83;9.63;;;1.10;99.90;;;;;;5079476;28;20501;-91
2024/03/02 06:50:49;;;;;;;14.43;8.70;;;1.10;99.90;;;;;;5083487;28;20067;-91
2024/03/02 06:53:19;;;;;;;14.23;9.45;;;1.20;99.90;;;;;;5082088;28;20444;-91
2024/03/02 06:55:46;;;;;;;14.63;8.30;;;1.20;99.90;;;;;;5083845;28;20037;-93
2024/03/02 06:58:14;;;;;;;26.45;13.98;;;1.20;99.90;;;;;;5063490;28;20020;-93
2024/03/02 07:00:41;;;;;;;15.23;9.43;;;1.60;99.90;;;;;;5082458;28;20524;-92
2024/03/02 07:03:07;;;;;;;13.32;10.18;;;1.60;99.90;;;;;;5081756;28;20510;-92
2024/03/02 07:05:33;;;;;;;22.23;10.32;;;1.50;99.90;;;;;;5063200;28;20020;-92
2024/03/02 07:07:59;;;;;;;17.75;10.27;;;1.40;99.90;;;;;;5062508;28;20497;-92
2024/03/02 07:10:25;;;;;;;35.30;14.05;;;1.40;99.90;;;;;;5081922;28;20024;-92
2024/03/02 07:12:51;;;;;;;56.42;15.77;;;1.40;99.90;;;;;;5080998;28;20042;-92
2024/03/02 07:17:55;;;;;;;25.00;9.10;;;1.40;99.90;;;;;;5081490;28;20024;-91
2024/03/02 07:20:20;;;;;;;29.52;9.73;;;1.40;99.90;;;;;;5064255;28;20025;-92
2024/03/02 07:22:46;;;;;;;20.88;9.18;;;1.50;99.90;;;;;;5060695;28;20495;-93
2024/03/02 07:25:12;;;;;;;11.73;7.70;;;1.60;99.90;;;;;;5071216;28;20032;-90
2024/03/02 07:27:39;;;;;;;31.10;18.75;;;1.60;99.90;;;;;;5082976;28;20055;-92
2024/03/02 07:30:05;;;;;;;23.10;14.77;;;1.70;99.90;;;;;;5081261;28;20103;-92
2024/03/02 07:32:31;;;;;;;22.05;12.00;;;1.90;99.90;;;;;;5080519;28;20016;-93
2024/03/02 07:35:01;;;;;;;23.33;12.60;;;2.10;99.90;;;;;;5062597;28;20033;-91
2024/03/02 07:37:27;;;;;;;26.63;12.30;;;2.30;99.90;;;;;;5080218;28;20020;-90
2024/03/02 07:39:52;;;;;;;17.45;9.45;;;2.50;99.90;;;;;;5080217;28;20059;-92
2024/03/02 07:42:21;;;;;;;18.40;9.15;;;2.70;99.90;;;;;;5063658;28;20634;-92
2024/03/02 07:44:46;;;;;;;14.75;9.20;;;2.80;99.90;;;;;;5079953;28;20033;-92
2024/03/02 07:47:12;;;;;;;15.00;8.57;;;3.00;99.90;;;;;;5079212;28;20084;-92
2024/03/02 07:49:38;;;;;;;14.25;7.43;;;3.10;99.90;;;;;;5087687;28;20031;-94
2024/03/02 07:52:04;;;;;;;14.15;8.73;;;3.20;99.90;;;;;;5079413;28;20024;-93
2024/03/02 07:54:29;;;;;;;9.23;7.22;;;3.40;99.90;;;;;;5097928;28;20080;-93
2024/03/02 07:56:55;;;;;;;13.00;6.75;;;3.50;99.90;;;;;;5098043;28;20020;-94
2024/03/02 07:59:21;;;;;;;10.30;6.55;;;3.60;99.90;;;;;;5090136;28;20025;-91
2024/03/02 08:01:50;;;;;;;7.40;4.93;;;3.70;99.90;;;;;;5088274;28;20023;-91
2024/03/02 08:04:15;;;;;;;;;;;3.80;99.90;;;;;;5078012;28;20020;-92
2024/03/02 08:06:41;;;;;;;8.32;5.75;;;3.90;99.90;;;;;;5076340;28;19912;-92
2024/03/02 08:09:10;;;;;;;10.30;6.03;;;4.00;99.90;;;;;;5087188;28;20017;-93
2024/03/02 08:11:35;;;;;;;11.88;6.60;;;4.10;99.90;;;;;;5079979;28;20024;-92
2024/03/02 08:14:01;;;;;;;11.60;4.90;;;4.20;99.90;;;;;;5082102;28;20673;-92
2024/03/02 08:16:27;;;;;;;8.75;4.85;;;4.30;99.90;;;;;;5080172;28;20020;-92
2024/03/02 08:18:53;;;;;;;12.23;5.00;;;4.40;99.90;;;;;;5078989;28;20040;-94
2024/03/02 08:21:19;;;;;;;5.47;4.05;;;4.50;99.90;;;;;;5070840;28;20032;-91
2024/03/02 08:23:45;;;;;;;7.78;5.25;;;4.70;99.90;;;;;;5079224;28;20025;-92
2024/03/02 08:26:11;;;;;;;5.68;4.45;;;4.80;99.90;;;;;;5078848;28;20028;-93
2024/03/02 08:28:38;;;;;;;9.65;5.90;;;4.90;99.90;;;;;;5079306;28;20028;-93
2024/03/02 08:31:04;;;;;;;6.18;4.95;;;5.10;99.90;;;;;;5061285;28;20047;-92
2024/03/02 08:33:30;;;;;;;13.27;7.78;;;5.10;99.90;;;;;;5061854;28;20033;-92
2024/03/02 08:35:56;;;;;;;9.70;6.68;;;5.20;99.90;;;;;;5080329;28;20086;-93
2024/03/02 08:38:22;;;;;;;6.78;4.22;;;5.40;99.90;;;;;;5078778;28;20032;-94
2024/03/02 08:40:49;;;;;;;5.82;4.30;;;5.50;99.90;;;;;;5086891;28;20044;-92
2024/03/02 08:43:15;;;;;;;10.90;7.35;;;5.60;99.90;;;;;;5078523;28;20320;-90
2024/03/02 08:45:41;;;;;;;8.35;5.53;;;5.70;99.90;;;;;;5079320;28;20629;-91
2024/03/02 08:48:08;;;;;;;8.77;6.60;;;5.80;99.90;;;;;;5078249;28;20017;-91
2024/03/02 08:50:34;;;;;;;8.60;5.13;;;6.00;96.30;;;;;;5054552;28;20021;-92
2024/03/02 08:53:00;;;;;;;65.25;32.45;;;6.10;96.90;;;;;;5079374;28;20008;-92
2024/03/02 08:55:26;;;;;;;23.10;13.63;;;6.20;96.80;;;;;;5078400;28;20115;-91
2024/03/02 08:57:54;;;;;;;10.73;5.88;;;6.40;96.50;;;;;;5080286;28;20082;-92
2024/03/02 09:00:20;;;;;;;11.90;7.78;;;6.50;95.60;;;;;;5078156;28;20029;-93
2024/03/02 09:02:46;;;;;;;7.40;5.88;;;6.70;95.10;;;;;;5060872;28;20035;-92
2024/03/02 09:05:12;;;;;;;11.82;7.35;;;6.80;93.30;;;;;;5077080;28;20029;-94
2024/03/02 09:07:38;;;;;;;12.75;9.35;;;7.00;90.60;;;;;;5061900;28;20055;-94
2024/03/02 09:10:05;;;;;;;10.07;6.28;;;7.10;91.30;;;;;;5080237;28;20044;-92
2024/03/02 09:12:32;;;;;;;10.43;7.28;;;7.20;91.60;;;;;;5078826;28;20077;-92
2024/03/02 09:15:03;;;;;;;7.18;4.63;;;7.40;90.60;;;;;;5077365;28;20078;-93
2024/03/02 09:17:29;;;;;;;7.93;4.72;;;7.40;84.40;;;;;;5076691;28;20024;-92
2024/03/02 09:19:54;;;;;;;4.75;3.55;;;7.60;80.20;;;;;;5056310;28;20054;-93
2024/03/02 09:22:20;;;;;;;5.75;3.85;;;7.70;79.00;;;;;;5060166;28;20024;-90
2024/03/02 09:24:46;;;;;;;7.32;4.78;;;7.90;78.90;;;;;;5077597;28;20111;-93
2024/03/02 09:27:12;;;;;;;7.22;4.40;;;8.10;79.30;;;;;;5079528;28;20084;-93
2024/03/02 09:29:38;;;;;;;6.18;4.30;;;8.20;77.10;;;;;;5078320;28;20582;-93
2024/03/02 09:32:08;;;;;;;5.50;4.50;;;8.40;75.50;;;;;;5081730;28;20027;-91
2024/03/02 09:34:33;;;;;;;7.53;4.70;;;8.50;76.10;;;;;;5081289;28;20108;-94
2024/03/02 09:36:59;;;;;;;7.22;5.03;;;8.70;74.90;;;;;;5081821;28;20539;-91
2024/03/02 09:39:28;;;;;;;7.68;5.85;;;8.80;74.60;;;;;;5080347;28;20028;-91
2024/03/02 09:41:54;;;;;;;13.88;6.40;;;9.00;74.30;;;;;;5080924;28;20020;-91
2024/03/02 09:44:20;;;;;;;8.80;5.72;;;9.20;73.40;;;;;;5063766;28;20024;-91
2024/03/02 09:46:49;;;;;;;8.93;5.80;;;9.30;70.50;;;;;;5062156;28;20036;-89
2024/03/02 09:49:15;;;;;;;9.48;6.30;;;9.50;71.40;;;;;;5080160;28;20021;-91
2024/03/02 09:51:46;;;;;;;7.82;5.72;;;9.70;69.40;;;;;;5080106;28;20099;-90
2024/03/02 09:54:12;;;;;;;10.07;5.70;;;9.90;69.40;;;;;;5079389;28;20081;-90
2024/03/02 09:56:38;;;;;;;7.68;4.85;;;10.00;69.60;;;;;;5081354;28;20463;-86
2024/03/02 09:59:04;;;;;;;6.32;4.38;;;10.20;67.50;;;;;;5081834;28;20021;-87
2024/03/02 10:01:30;;;;;;;8.20;4.97;;;10.50;65.70;;;;;;5081415;28;20035;-91
2024/03/02 10:03:59;;;;;;;8.90;5.38;;;10.60;64.20;;;;;;5064928;28;20024;-90
2024/03/02 10:06:27;;;;;;;6.70;4.50;;;10.90;64.20;;;;;;5065659;28;20024;-91
2024/03/02 10:08:54;;;;;;;12.30;4.60;;;11.10;63.40;;;;;;5081678;28;20074;-91
2024/03/02 10:11:40;;;;;;;13.50;5.65;;;11.20;60.80;;;;;;5063337;28;20119;-93
2024/03/02 10:14:10;;;;;;;5.38;4.20;;;11.30;60.30;;;;;;5078438;28;20705;-90
2024/03/02 10:16:40;;;;;;;6.50;4.25;;;11.40;60.20;;;;;;5062115;28;20059;-89
2024/03/02 10:19:20;;;;;;;6.30;4.43;;;11.60;59.70;;;;;;5078914;28;20111;-89
2024/03/02 10:21:51;;;;;;;6.25;3.50;;;11.80;60.60;;;;;;5079508;28;20112;-91
2024/03/02 10:24:17;;;;;;;8.25;3.90;;;12.00;60.50;;;;;;5079820;28;20072;-91
2024/03/02 10:26:43;;;;;;;7.53;3.92;;;12.10;58.00;;;;;;5062793;28;20046;-89
2024/03/02 10:29:11;;;;;;;11.77;5.20;;;12.10;58.80;;;;;;5082089;28;20087;-89
2024/03/02 10:31:41;;;;;;;6.45;4.60;;;12.30;58.40;;;;;;5076992;28;20025;-90
2024/03/02 10:37:41;;;;;;;17.13;4.68;;;12.60;55.80;;;;;;5009887;28;20069;-88
2024/03/02 10:40:11;;;;;;;5.45;3.55;;;13.00;54.60;;;;;;5089882;28;20037;-92
2024/03/02 10:43:03;;;;;;;23.80;5.63;;;13.10;53.80;;;;;;5080222;28;20082;-90
2024/03/02 10:45:31;;;;;;;22.75;4.80;;;13.30;53.90;;;;;;5065595;28;20040;-89
2024/03/02 10:48:05;;;;;;;4.07;2.88;;;13.40;52.60;;;;;;5094210;28;20051;-89
2024/03/02 10:50:33;;;;;;;6.05;4.03;;;13.50;51.90;;;;;;5063800;28;20024;-88
2024/03/02 10:53:18;;;;;;;12.35;4.10;;;13.70;52.50;;;;;;5058309;28;20066;-88
2024/03/02 10:55:48;;;;;;;5.07;3.33;;;14.00;52.20;;;;;;5057462;28;20690;-89
2024/03/02 10:58:15;;;;;;;5.93;3.40;;;14.20;49.70;;;;;;5079171;28;20039;-85
2024/03/02 11:00:46;;;;;;;4.65;3.13;;;14.30;50.20;;;;;;5075818;28;20090;-90
2024/03/02 11:03:48;;;;;;;6.10;3.33;;;14.70;49.40;;;;;;5083488;28;20510;-90
2024/03/02 11:06:33;;;;;;;10.40;4.50;;;14.90;47.40;;;;;;5067142;28;20408;-91
2024/03/02 11:09:05;;;;;;;12.85;3.03;;;14.90;45.00;;;;;;5073154;28;20027;-89
2024/03/02 11:11:36;;;;;;;7.45;2.38;;;14.60;45.10;;;;;;5076946;28;20129;-88
2024/03/02 11:14:08;;;;;;;6.70;3.00;;;14.80;46.30;;;;;;5077542;28;20017;-88
2024/03/02 11:16:38;;;;;;;6.97;3.38;;;15.10;46.20;;;;;;5060089;28;20035;-88
2024/03/02 11:19:10;;;;;;;10.40;3.38;;;15.30;44.70;;;;;;5081804;28;20024;-90
2024/03/02 11:21:40;;;;;;;5.63;2.35;;;15.30;44.30;;;;;;5083184;28;20032;-86
2024/03/02 11:24:24;;;;;;;6.35;2.53;;;15.40;45.20;;;;;;5079538;28;20028;-87
2024/03/02 11:26:56;;;;;;;5.15;1.52;;;15.50;44.20;;;;;;5082685;28;20025;-87
2024/03/02 11:29:40;;;;;;;3.42;2.10;;;15.70;42.00;;;;;;5076782;28;20020;-88
2024/03/02 11:32:20;;;;;;;2.83;1.67;;;15.90;42.40;;;;;;5078063;28;20021;-87
2024/03/02 11:34:48;;;;;;;;;;;16.20;40.80;;;;;;5057411;28;20041;-89
2024/03/02 11:37:44;;;;;;;4.32;1.95;;;16.50;41.50;;;;;;5073172;28;19923;-87
2024/03/02 11:40:56;;;;;;;3.05;2.40;;;16.30;40.30;;;;;;5065279;28;20501;-87
2024/03/02 11:43:46;;;;;;;;;;;16.40;40.40;;;;;;5051173;28;20032;-89
2024/03/02 11:53:34;;;;;;;6.05;1.95;;;16.30;41.30;;;;;;4982400;28;20029;-89
2024/03/02 11:56:28;;;;;;;;;;;;;;;;;;;;;
2024/03/02 12:02:17;;;;;;;4.50;1.50;;;17.10;39.40;;;;;;5071076;28;20052;-91
2024/03/02 12:04:52;;;;;;;3.20;1.48;;;17.50;38.70;;;;;;5070236;28;20790;-89
2024/03/02 12:10:40;;;;;;;4.05;1.20;;;17.90;37.10;;;;;;5078004;28;20521;-89
2024/03/02 12:16:48;;;;;;;2.20;1.35;;;18.20;35.20;;;;;;5020571;28;20060;-91
2024/03/02 12:19:32;;;;;;;2.47;1.55;;;18.40;35.70;;;;;;5074515;28;20039;-89
2024/03/02 12:22:29;;;;;;;5.53;1.77;;;18.70;35.50;;;;;;5076032;28;20088;-89
2024/03/02 12:25:17;;;;;;;4.15;1.58;;;18.80;35.50;;;;;;5058506;28;20035;-91
2024/03/02 12:28:30;;;;;;;;;;;;;;;;;;;;;
2024/03/02 12:41:15;;;;;;;2.13;1.52;;;18.80;35.30;;;;;;5118039;22;20578;-91
2024/03/02 12:43:41;;;;;;;3.00;1.52;;;18.60;35.10;;;;;;5099136;28;20024;-91
2024/03/02 12:46:06;;;;;;;4.13;1.42;;;18.70;34.80;;;;;;5077792;28;20043;-91
2024/03/02 12:48:33;;;;;;;2.38;1.58;;;19.10;34.60;;;;;;5073428;28;20021;-91
2024/03/02 12:50:59;;;;;;;4.40;2.10;;;19.20;34.70;;;;;;5076823;28;20025;-90
2024/03/02 12:53:24;;;;;;;3.60;1.63;;;19.10;34.80;;;;;;5083259;28;20020;-89
2024/03/02 12:55:51;;;;;;;3.65;2.10;;;19.10;34.50;;;;;;5090619;28;20061;-90
2024/03/02 12:58:19;;;;;;;3.72;1.15;;;19.10;34.40;;;;;;5085899;28;20097;-92
2024/03/02 13:00:44;;;;;;;3.20;1.75;;;18.60;35.30;;;;;;5061635;28;20020;-90
2024/03/02 13:03:11;;;;;;;4.72;1.70;;;18.50;35.70;;;;;;5089665;28;20501;-92
2024/03/02 13:05:40;;;;;;;2.63;1.33;;;18.20;35.50;;;;;;5076808;28;20050;-92
2024/03/02 13:08:09;;;;;;;2.70;1.20;;;18.10;37.00;;;;;;5079470;28;20023;-90
2024/03/02 13:10:34;;;;;;;4.07;1.90;;;18.20;36.80;;;;;;5061471;28;20021;-90
2024/03/02 13:13:01;;;;;;;2.25;1.33;;;18.30;36.70;;;;;;5060994;28;20021;-92
2024/03/02 13:15:27;;;;;;;2.78;1.98;;;18.80;35.40;;;;;;5090783;28;20024;-91
2024/03/02 13:17:53;;;;;;;3.92;1.30;;;19.10;35.60;;;;;;5090334;28;20020;-91
2024/03/02 13:20:20;;;;;;;1.20;1.00;;;19.30;35.00;;;;;;5041184;28;20380;-90
2024/03/02 13:22:48;;;;;;;3.28;1.00;;;19.80;34.00;;;;;;5050521;28;20016;-88
2024/03/02 13:25:17;;;;;;;2.92;1.25;;;19.80;33.40;;;;;;5071653;28;20131;-88
2024/03/02 13:27:43;;;;;;;3.28;1.48;;;19.80;34.40;;;;;;5089593;28;20082;-91
2024/03/02 13:30:12;;;;;;;3.28;1.08;;;19.90;33.50;;;;;;5086787;28;20028;-86
2024/03/02 13:32:38;;;;;;;2.08;1.35;;;19.80;33.70;;;;;;5070255;28;20131;-90